createdAt,value
2022-12-31T00:01:29.506Z,1.98
2022-12-31T00:03:56.933Z,1.92
2022-12-31T00:06:28.130Z,1.86
2022-12-31T00:08:56.921Z,1.81
2022-12-31T00:11:25.291Z,1.75
2022-12-31T00:13:52.872Z,1.70
2022-12-31T00:16:24.375Z,1.67
2022-12-31T00:18:55.976Z,1.64
2022-12-31T00:21:22.534Z,1.62
2022-12-31T00:23:49.255Z,1.60
2022-12-31T00:26:20.242Z,1.59
2022-12-31T00:28:48.036Z,1.57
2022-12-31T00:31:17.999Z,1.57
2022-12-31T00:33:45.409Z,1.60
2022-12-31T00:36:15.798Z,1.65
2022-12-31T00:38:45.563Z,1.70
2022-12-31T00:41:13.182Z,1.76
2022-12-31T00:43:39.661Z,1.82
2022-12-31T00:46:06.797Z,1.90
2022-12-31T00:48:34.702Z,2.00
2022-12-31T00:51:03.835Z,2.06
2022-12-31T00:53:30.519Z,2.03
2022-12-31T00:56:14.407Z,2.04
2022-12-31T00:58:40.961Z,2.04
2022-12-31T01:01:12.599Z,2.02
2022-12-31T01:03:39.133Z,1.93
2022-12-31T01:06:06.263Z,1.86
2022-12-31T01:08:32.950Z,1.84
2022-12-31T01:11:20.295Z,1.82
2022-12-31T01:13:52.052Z,1.77
2022-12-31T01:16:22.616Z,1.73
2022-12-31T01:18:50.218Z,1.66
2022-12-31T01:21:17.865Z,1.59
2022-12-31T01:23:44.649Z,1.51
2022-12-31T01:26:13.676Z,1.42
2022-12-31T01:28:40.717Z,1.33
2022-12-31T01:31:10.762Z,1.24
2022-12-31T01:33:38.060Z,1.17
2022-12-31T01:36:08.358Z,1.11
2022-12-31T01:38:35.963Z,1.04
2022-12-31T01:41:03.696Z,0.99
2022-12-31T01:44:08.393Z,0.94
2022-12-31T01:46:41.229Z,0.92
2022-12-31T01:49:18.707Z,0.92
2022-12-31T01:51:50.039Z,0.94
2022-12-31T01:54:20.497Z,0.95
2022-12-31T01:56:49.407Z,0.97
2022-12-31T01:59:18.141Z,1.02
2022-12-31T02:01:47.594Z,1.07
2022-12-31T02:04:15.660Z,1.14
2022-12-31T02:06:50.541Z,1.18
2022-12-31T02:09:19.138Z,1.22
2022-12-31T02:11:45.577Z,1.27
2022-12-31T02:14:16.643Z,1.31
2022-12-31T02:17:05.047Z,1.33
2022-12-31T02:20:00.196Z,1.37
2022-12-31T02:22:57.094Z,1.38
2022-12-31T02:25:51.955Z,1.36
2022-12-31T02:28:57.421Z,1.35
2022-12-31T02:31:32.234Z,1.37
2022-12-31T02:34:36.692Z,1.35
2022-12-31T02:37:09.052Z,1.33
2022-12-31T02:39:36.607Z,1.31
2022-12-31T02:42:03.308Z,1.32
2022-12-31T02:44:33.701Z,1.33
2022-12-31T02:47:26.220Z,1.36
2022-12-31T02:50:28.852Z,1.37
2022-12-31T02:53:18.908Z,1.33
2022-12-31T02:55:57.125Z,1.18
2022-12-31T02:59:09.127Z,1.09
2022-12-31T03:01:59.461Z,1.02
2022-12-31T03:04:35.531Z,0.97
2022-12-31T03:07:08.175Z,0.98
2022-12-31T03:09:36.019Z,1.00
2022-12-31T03:12:20.020Z,1.06
2022-12-31T03:14:46.977Z,1.09
2022-12-31T03:17:13.838Z,1.17
2022-12-31T03:20:00.485Z,1.28
2022-12-31T03:22:27.340Z,1.44
2022-12-31T03:25:30.790Z,1.60
2022-12-31T03:27:58.214Z,1.75
2022-12-31T03:30:25.373Z,1.84
2022-12-31T03:32:52.666Z,1.86
2022-12-31T03:35:20.626Z,1.84
2022-12-31T03:37:48.010Z,1.84
2022-12-31T03:40:16.160Z,1.90
2022-12-31T03:42:42.517Z,1.99
2022-12-31T03:45:10.218Z,2.07
2022-12-31T03:47:36.805Z,2.03
2022-12-31T03:50:05.231Z,1.94
2022-12-31T03:52:31.740Z,1.87
2022-12-31T03:54:58.169Z,1.86
2022-12-31T03:57:24.882Z,1.87
2022-12-31T03:59:51.375Z,1.88
2022-12-31T04:02:20.871Z,1.81
2022-12-31T04:04:49.685Z,1.82
2022-12-31T04:07:16.340Z,1.81
2022-12-31T04:09:43.090Z,1.70
2022-12-31T04:12:09.531Z,1.59
2022-12-31T04:14:36.009Z,1.51
2022-12-31T04:17:02.648Z,1.52
2022-12-31T04:19:29.156Z,1.56
2022-12-31T04:21:55.602Z,1.61
2022-12-31T04:24:22.279Z,1.65
2022-12-31T04:26:49.213Z,1.69
2022-12-31T04:29:15.628Z,1.75
2022-12-31T04:31:42.156Z,1.81
2022-12-31T04:34:08.869Z,1.88
2022-12-31T04:36:35.309Z,1.92
2022-12-31T04:39:01.756Z,1.98
2022-12-31T04:41:28.285Z,1.98
2022-12-31T04:43:57.895Z,2.00
2022-12-31T04:46:27.083Z,2.06
2022-12-31T04:48:54.035Z,2.10
2022-12-31T04:51:21.193Z,2.15
2022-12-31T04:53:48.726Z,2.16
2022-12-31T04:56:16.062Z,2.23
2022-12-31T04:58:44.325Z,2.27
2022-12-31T05:01:12.183Z,2.26
2022-12-31T05:03:39.323Z,2.25
2022-12-31T05:06:10.133Z,2.27
2022-12-31T05:08:36.751Z,2.25
2022-12-31T05:11:03.437Z,2.20
2022-12-31T05:13:33.337Z,2.19
2022-12-31T05:16:01.519Z,2.20
2022-12-31T05:18:29.075Z,2.22
2022-12-31T05:20:55.858Z,2.26
2022-12-31T05:23:23.714Z,2.29
2022-12-31T05:25:50.812Z,2.27
2022-12-31T05:28:17.969Z,2.18
2022-12-31T05:30:47.104Z,2.10
2022-12-31T05:33:13.582Z,2.03
2022-12-31T05:35:40.007Z,1.97
2022-12-31T05:38:07.214Z,1.94
2022-12-31T05:40:33.692Z,1.94
2022-12-31T05:43:00.049Z,1.95
2022-12-31T05:45:30.789Z,1.93
2022-12-31T05:47:57.740Z,1.84
2022-12-31T05:50:24.600Z,1.79
2022-12-31T05:52:55.125Z,1.81
2022-12-31T05:55:22.291Z,1.82
2022-12-31T05:57:48.671Z,1.87
2022-12-31T06:00:15.553Z,1.96
2022-12-31T06:02:42.152Z,2.03
2022-12-31T06:05:09.639Z,2.06
2022-12-31T06:07:36.190Z,2.11
2022-12-31T06:10:04.795Z,2.18
2022-12-31T06:12:31.236Z,2.21
2022-12-31T06:14:57.754Z,2.19
2022-12-31T06:17:24.276Z,2.14
2022-12-31T06:19:50.728Z,2.04
2022-12-31T06:22:17.226Z,2.07
2022-12-31T06:24:43.691Z,2.11
2022-12-31T06:27:10.276Z,2.12
2022-12-31T06:29:36.823Z,2.10
2022-12-31T06:32:03.441Z,2.00
2022-12-31T06:34:29.836Z,1.85
2022-12-31T06:36:56.268Z,1.82
2022-12-31T06:39:22.830Z,1.83
2022-12-31T06:41:49.325Z,1.84
2022-12-31T06:44:15.929Z,1.81
2022-12-31T06:46:42.404Z,1.82
2022-12-31T06:49:09.047Z,1.85
2022-12-31T06:51:35.564Z,1.97
2022-12-31T06:54:01.908Z,2.07
2022-12-31T06:56:34.322Z,2.11
2022-12-31T06:59:02.363Z,2.17
2022-12-31T07:02:00.858Z,2.26
2022-12-31T07:05:03.715Z,2.34
2022-12-31T07:07:47.731Z,2.45
2022-12-31T07:10:39.465Z,2.55
2022-12-31T07:13:27.600Z,2.65
2022-12-31T07:16:09.561Z,2.75
2022-12-31T07:18:54.517Z,2.86
2022-12-31T07:21:32.870Z,2.93
2022-12-31T07:23:59.663Z,2.95
2022-12-31T07:26:56.757Z,3.04
2022-12-31T07:29:30.776Z,3.14
2022-12-31T07:32:22.239Z,3.15
2022-12-31T07:35:06.207Z,3.18
2022-12-31T07:37:46.733Z,3.20
2022-12-31T07:40:24.086Z,3.20
2022-12-31T07:43:09.978Z,3.24
2022-12-31T07:45:47.295Z,3.29
2022-12-31T07:48:22.441Z,3.31
2022-12-31T07:50:50.726Z,3.33
2022-12-31T07:53:17.497Z,3.32
2022-12-31T07:55:43.994Z,3.25
2022-12-31T07:58:20.787Z,3.24
2022-12-31T08:00:47.942Z,3.28
2022-12-31T08:03:35.141Z,3.33
2022-12-31T08:06:10.640Z,3.40
2022-12-31T08:08:53.166Z,3.43
2022-12-31T08:11:31.213Z,3.47
2022-12-31T08:14:01.019Z,3.43
2022-12-31T08:16:29.044Z,3.41
2022-12-31T08:18:55.974Z,3.33
2022-12-31T08:21:43.100Z,3.19
2022-12-31T08:24:38.741Z,3.13
2022-12-31T08:27:20.308Z,3.18
2022-12-31T08:30:16.467Z,3.22
2022-12-31T08:33:09.306Z,3.33
2022-12-31T08:36:09.302Z,3.44
2022-12-31T08:38:55.881Z,3.58
2022-12-31T08:41:29.476Z,3.74
2022-12-31T08:44:16.374Z,3.95
2022-12-31T08:46:56.391Z,4.17
2022-12-31T08:49:26.746Z,4.32
2022-12-31T08:51:53.712Z,4.47
2022-12-31T08:54:20.788Z,4.47
2022-12-31T08:57:10.118Z,4.53
2022-12-31T08:59:54.946Z,4.64
2022-12-31T09:02:43.215Z,4.83
2022-12-31T09:05:44.952Z,5.06
2022-12-31T09:08:29.779Z,5.30
2022-12-31T09:11:09.759Z,5.48
2022-12-31T09:14:01.680Z,5.61
2022-12-31T09:16:48.011Z,5.68
2022-12-31T09:19:16.954Z,5.69
2022-12-31T09:21:44.507Z,5.68
2022-12-31T09:24:15.927Z,5.70
2022-12-31T09:27:02.503Z,5.80
2022-12-31T09:30:03.308Z,5.95
2022-12-31T09:32:49.336Z,6.15
2022-12-31T09:35:34.802Z,6.24
2022-12-31T09:38:23.064Z,6.33
2022-12-31T09:41:05.722Z,6.38
2022-12-31T09:44:04.402Z,6.48
2022-12-31T09:47:03.597Z,6.50
2022-12-31T09:49:52.306Z,6.50
2022-12-31T09:52:33.106Z,6.55
2022-12-31T09:55:33.768Z,6.54
2022-12-31T09:58:34.328Z,6.58
2022-12-31T10:01:23.986Z,6.60
2022-12-31T10:04:24.693Z,6.51
2022-12-31T10:07:10.038Z,6.44
2022-12-31T10:10:02.031Z,6.47
2022-12-31T10:13:01.128Z,6.59
2022-12-31T10:16:05.459Z,6.70
2022-12-31T10:18:51.591Z,6.68
2022-12-31T10:21:36.001Z,6.74
2022-12-31T10:24:28.474Z,6.83
2022-12-31T10:27:13.459Z,6.82
2022-12-31T10:29:57.446Z,6.84
2022-12-31T10:32:50.338Z,6.78
2022-12-31T10:35:53.110Z,6.65
2022-12-31T10:38:32.075Z,6.51
2022-12-31T10:41:30.491Z,6.54
2022-12-31T10:44:26.636Z,6.66
2022-12-31T10:47:20.968Z,6.81
2022-12-31T10:50:17.716Z,6.88
2022-12-31T10:53:17.554Z,6.90
2022-12-31T10:56:20.133Z,6.72
2022-12-31T10:59:17.961Z,6.86
2022-12-31T11:01:58.487Z,7.00
2022-12-31T11:04:51.984Z,7.08
2022-12-31T11:07:48.510Z,7.20
2022-12-31T11:10:42.083Z,7.29
2022-12-31T11:13:38.854Z,7.29
2022-12-31T11:16:30.937Z,7.18
2022-12-31T11:19:13.866Z,7.22
2022-12-31T11:22:08.812Z,7.13
2022-12-31T11:25:01.184Z,7.24
2022-12-31T11:27:59.729Z,7.25
2022-12-31T11:31:05.826Z,7.54
2022-12-31T11:34:00.331Z,7.80
2022-12-31T11:36:59.336Z,8.17
2022-12-31T11:39:53.468Z,8.52
2022-12-31T11:42:32.037Z,8.72
2022-12-31T11:45:14.161Z,9.03
2022-12-31T11:48:29.797Z,9.41
2022-12-31T11:51:09.654Z,9.85
2022-12-31T11:54:00.745Z,10.07
2022-12-31T11:56:39.804Z,10.13
2022-12-31T11:59:19.062Z,10.11
2022-12-31T12:01:58.935Z,10.20
2022-12-31T12:04:25.755Z,10.29
2022-12-31T12:06:52.784Z,10.51
2022-12-31T12:09:27.931Z,10.74
2022-12-31T12:12:04.711Z,10.93
2022-12-31T12:14:35.937Z,11.18
2022-12-31T12:17:07.411Z,11.32
2022-12-31T12:19:40.666Z,11.22
2022-12-31T12:22:22.232Z,10.88
2022-12-31T12:25:07.210Z,10.98
2022-12-31T12:27:36.386Z,11.03
2022-12-31T12:30:17.215Z,11.00
2022-12-31T12:32:53.404Z,10.94
2022-12-31T12:35:26.213Z,11.08
2022-12-31T12:38:03.798Z,11.09
2022-12-31T12:40:34.308Z,11.04
2022-12-31T12:43:02.887Z,10.95
2022-12-31T12:45:52.361Z,11.08
2022-12-31T12:48:30.407Z,11.49
2022-12-31T12:50:57.110Z,11.83
2022-12-31T12:53:45.137Z,11.81
2022-12-31T12:56:26.832Z,11.91
2022-12-31T12:59:26.991Z,11.87
2022-12-31T13:02:15.947Z,11.99
2022-12-31T13:05:08.926Z,11.92
2022-12-31T13:07:52.069Z,11.88
2022-12-31T13:10:46.093Z,12.09
2022-12-31T13:13:33.217Z,12.18
2022-12-31T13:16:17.983Z,11.98
2022-12-31T13:19:01.677Z,11.67
2022-12-31T13:21:43.638Z,11.24
2022-12-31T13:24:46.304Z,11.01
2022-12-31T13:27:26.451Z,10.88
2022-12-31T13:29:58.478Z,10.79
2022-12-31T13:32:41.643Z,10.56
2022-12-31T13:35:26.417Z,10.37
2022-12-31T13:38:05.301Z,10.17
2022-12-31T13:40:45.964Z,10.11
2022-12-31T13:43:25.033Z,9.99
2022-12-31T13:46:03.753Z,9.84
2022-12-31T13:48:39.865Z,9.61
2022-12-31T13:51:17.461Z,9.53
2022-12-31T13:53:56.057Z,9.35
2022-12-31T13:56:26.863Z,9.13
2022-12-31T13:59:02.895Z,8.92
2022-12-31T14:01:43.161Z,8.81
2022-12-31T14:04:16.815Z,8.65
2022-12-31T14:07:12.140Z,8.53
2022-12-31T14:09:38.793Z,8.44
2022-12-31T14:12:20.685Z,8.36
2022-12-31T14:15:13.836Z,8.27
2022-12-31T14:17:49.891Z,8.16
2022-12-31T14:20:33.017Z,8.08
2022-12-31T14:23:17.693Z,8.01
2022-12-31T14:25:50.694Z,7.93
2022-12-31T14:28:23.287Z,7.88
2022-12-31T14:30:57.447Z,7.81
2022-12-31T14:33:37.190Z,7.78
2022-12-31T14:36:19.161Z,7.77
2022-12-31T14:39:25.403Z,7.77
2022-12-31T14:42:10.556Z,7.75
2022-12-31T14:45:02.229Z,7.71
2022-12-31T14:47:43.597Z,7.64
2022-12-31T14:50:15.190Z,7.58
2022-12-31T14:52:52.928Z,7.55
2022-12-31T14:55:25.912Z,7.49
2022-12-31T14:58:26.324Z,7.41
2022-12-31T15:00:50.695Z,7.32
2022-12-31T15:03:25.282Z,7.33
2022-12-31T15:06:14.407Z,7.33
2022-12-31T15:09:07.610Z,7.29
2022-12-31T15:11:45.538Z,7.30
2022-12-31T15:14:37.831Z,7.29
2022-12-31T15:17:34.341Z,7.26
2022-12-31T15:20:34.730Z,7.20
2022-12-31T15:23:01.634Z,7.16
2022-12-31T15:25:41.373Z,7.12
2022-12-31T15:28:29.155Z,7.06
2022-12-31T15:31:04.172Z,7.02
2022-12-31T15:33:38.596Z,6.95
2022-12-31T15:36:16.339Z,6.90
2022-12-31T15:38:43.846Z,6.86
2022-12-31T15:41:25.838Z,6.83
2022-12-31T15:44:06.871Z,6.79
2022-12-31T15:46:41.375Z,6.75
2022-12-31T15:49:16.277Z,6.69
2022-12-31T15:51:47.772Z,6.66
2022-12-31T15:54:34.367Z,6.67
2022-12-31T15:57:07.187Z,6.71
2022-12-31T15:59:37.471Z,6.74
2022-12-31T16:02:04.178Z,6.77
2022-12-31T16:04:33.994Z,6.80
2022-12-31T16:07:03.492Z,6.84
2022-12-31T16:09:35.381Z,6.87
2022-12-31T16:12:09.480Z,6.91
2022-12-31T16:14:39.892Z,6.95
2022-12-31T16:17:21.253Z,6.98
2022-12-31T16:19:47.690Z,7.02
2022-12-31T16:22:17.470Z,7.05
2022-12-31T16:25:19.465Z,7.09
2022-12-31T16:27:33.683Z,7.13
2022-12-31T16:30:06.506Z,7.19
2022-12-31T16:32:37.377Z,7.21
2022-12-31T16:35:23.861Z,7.19
2022-12-31T16:38:10.426Z,7.22
2022-12-31T16:40:38.130Z,7.24
2022-12-31T16:43:23.398Z,7.23
2022-12-31T16:45:50.251Z,7.21
2022-12-31T16:48:19.562Z,7.20
2022-12-31T16:50:49.871Z,7.19
2022-12-31T16:53:23.204Z,7.20
2022-12-31T16:55:55.192Z,7.20
2022-12-31T16:58:30.027Z,7.18
2022-12-31T17:01:11.193Z,7.17
2022-12-31T17:03:41.437Z,7.14
2022-12-31T17:06:15.596Z,7.10
2022-12-31T17:08:49.891Z,7.05
2022-12-31T17:11:23.755Z,7.03
2022-12-31T17:13:55.375Z,6.98
2022-12-31T17:16:22.907Z,6.96
2022-12-31T17:18:50.419Z,6.92
2022-12-31T17:21:18.018Z,6.89
2022-12-31T17:23:52.945Z,6.90
2022-12-31T17:26:26.070Z,6.95
2022-12-31T17:28:54.959Z,6.99
2022-12-31T17:31:32.759Z,7.03
2022-12-31T17:34:20.348Z,7.03
2022-12-31T17:36:59.554Z,7.02
2022-12-31T17:39:38.642Z,7.06
2022-12-31T17:42:07.149Z,7.04
2022-12-31T17:44:37.740Z,7.08
2022-12-31T17:47:04.436Z,7.14
2022-12-31T17:49:31.433Z,7.20
2022-12-31T17:51:58.023Z,7.26
2022-12-31T17:54:24.532Z,7.30
2022-12-31T17:56:52.100Z,7.33
2022-12-31T17:59:28.920Z,7.33
2022-12-31T18:02:00.564Z,7.33
2022-12-31T18:04:27.141Z,7.32
2022-12-31T18:06:53.548Z,7.31
2022-12-31T18:09:20.242Z,7.31
2022-12-31T18:11:46.944Z,7.27
2022-12-31T18:14:15.533Z,7.22
2022-12-31T18:16:42.040Z,7.15
2022-12-31T18:19:23.634Z,7.11
2022-12-31T18:22:00.084Z,7.10
2022-12-31T18:24:26.615Z,7.06
2022-12-31T18:26:53.434Z,7.03
2022-12-31T18:29:20.292Z,6.99
2022-12-31T18:32:04.781Z,6.93
2022-12-31T18:34:31.484Z,6.90
2022-12-31T18:36:58.750Z,6.90
2022-12-31T18:39:25.181Z,6.92
2022-12-31T18:41:51.721Z,6.95
2022-12-31T18:44:18.164Z,6.99
2022-12-31T18:46:44.627Z,7.03
2022-12-31T18:49:11.277Z,7.06
2022-12-31T18:51:37.736Z,7.08
2022-12-31T18:54:04.566Z,7.13
2022-12-31T18:56:31.424Z,7.14
2022-12-31T18:58:59.028Z,7.09
2022-12-31T19:01:33.441Z,6.96
2022-12-31T19:04:03.207Z,7.04
2022-12-31T19:06:29.956Z,7.13
2022-12-31T19:08:56.468Z,7.21
2022-12-31T19:11:23.417Z,7.26
2022-12-31T19:13:49.946Z,7.30
2022-12-31T19:16:17.296Z,7.31
2022-12-31T19:18:45.465Z,7.27
2022-12-31T19:21:21.898Z,7.24
2022-12-31T19:23:49.862Z,7.22
2022-12-31T19:26:19.253Z,7.21
2022-12-31T19:28:46.829Z,7.16
2022-12-31T19:31:13.619Z,7.10
2022-12-31T19:33:41.341Z,7.04
2022-12-31T19:36:15.423Z,6.97
2022-12-31T19:38:42.752Z,6.93
2022-12-31T19:41:15.342Z,6.90
2022-12-31T19:43:41.950Z,6.85
2022-12-31T19:46:13.005Z,6.81
2022-12-31T19:48:39.648Z,6.79
2022-12-31T19:51:09.778Z,6.76
2022-12-31T19:53:36.327Z,6.71
2022-12-31T19:56:03.516Z,6.67
2022-12-31T19:58:31.260Z,6.68
2022-12-31T20:01:02.949Z,6.68
2022-12-31T20:03:31.923Z,6.70
2022-12-31T20:06:01.821Z,6.75
2022-12-31T20:08:28.382Z,6.79
2022-12-31T20:10:58.077Z,6.81
2022-12-31T20:13:26.259Z,6.85
2022-12-31T20:15:53.591Z,6.89
2022-12-31T20:18:22.213Z,6.90
2022-12-31T20:20:55.372Z,6.86
2022-12-31T20:23:22.381Z,6.87
2022-12-31T20:26:04.159Z,6.89
2022-12-31T20:28:30.766Z,6.90
2022-12-31T20:30:57.391Z,6.93
2022-12-31T20:33:23.948Z,6.96
2022-12-31T20:35:50.777Z,6.97
2022-12-31T20:38:17.277Z,6.97
2022-12-31T20:40:46.973Z,6.90
2022-12-31T20:43:13.800Z,6.83
2022-12-31T20:45:41.278Z,6.78
2022-12-31T20:48:07.922Z,6.74
2022-12-31T20:50:34.633Z,6.70
2022-12-31T20:53:01.397Z,6.68
2022-12-31T20:55:30.099Z,6.65
2022-12-31T20:57:56.672Z,6.61
2022-12-31T21:00:23.237Z,6.51
2022-12-31T21:02:59.005Z,6.46
2022-12-31T21:05:34.030Z,6.43
2022-12-31T21:08:00.743Z,6.41
2022-12-31T21:10:27.187Z,6.38
2022-12-31T21:12:53.717Z,6.39
2022-12-31T21:15:20.885Z,6.41
2022-12-31T21:17:47.504Z,6.44
2022-12-31T21:20:14.048Z,6.49
2022-12-31T21:22:40.529Z,6.53
2022-12-31T21:25:07.367Z,6.57
2022-12-31T21:27:35.230Z,6.59
2022-12-31T21:30:18.128Z,6.62
2022-12-31T21:32:45.882Z,6.67
2022-12-31T21:35:41.576Z,6.70
2022-12-31T21:38:01.049Z,6.73
2022-12-31T21:40:28.886Z,6.74
2022-12-31T21:42:55.384Z,6.78
2022-12-31T21:45:22.261Z,6.81
2022-12-31T21:47:59.777Z,6.81
2022-12-31T21:50:26.428Z,6.79
2022-12-31T21:52:52.833Z,6.75
2022-12-31T21:55:30.312Z,6.71
2022-12-31T21:58:25.426Z,6.67
2022-12-31T22:01:00.699Z,6.64
2022-12-31T22:03:28.044Z,6.58
2022-12-31T22:06:02.307Z,6.51
2022-12-31T22:08:30.202Z,6.46
2022-12-31T22:10:57.071Z,6.43
2022-12-31T22:13:23.683Z,6.38
2022-12-31T22:15:58.754Z,6.35
2022-12-31T22:18:29.303Z,6.31
2022-12-31T22:21:05.622Z,6.30
2022-12-31T22:23:33.476Z,6.27
2022-12-31T22:26:01.144Z,6.27
2022-12-31T22:28:38.073Z,6.27
2022-12-31T22:31:16.703Z,6.29
2022-12-31T22:33:44.059Z,6.33
2022-12-31T22:36:14.462Z,6.37
2022-12-31T22:38:44.971Z,6.41
2022-12-31T22:41:17.528Z,6.45
2022-12-31T22:43:51.748Z,6.50
2022-12-31T22:46:21.930Z,6.53
2022-12-31T22:48:49.133Z,6.58
2022-12-31T22:51:17.310Z,6.62
2022-12-31T22:53:44.148Z,6.65
2022-12-31T22:56:13.852Z,6.63
2022-12-31T22:58:40.700Z,6.63
2022-12-31T23:01:15.048Z,6.63
2022-12-31T23:03:41.826Z,6.61
2022-12-31T23:06:08.488Z,6.59
2022-12-31T23:08:34.959Z,6.55
2022-12-31T23:11:05.067Z,6.51
2022-12-31T23:13:55.250Z,6.47
2022-12-31T23:16:35.568Z,6.44
2022-12-31T23:19:15.583Z,6.41
2022-12-31T23:21:55.783Z,6.36
2022-12-31T23:24:26.705Z,6.33
2022-12-31T23:26:56.467Z,6.30
2022-12-31T23:29:24.612Z,6.27
2022-12-31T23:31:52.238Z,6.25
2022-12-31T23:34:18.896Z,6.23
2022-12-31T23:36:45.274Z,6.20
2022-12-31T23:39:12.733Z,6.20
2022-12-31T23:41:39.661Z,6.20
2022-12-31T23:44:06.288Z,6.22
2022-12-31T23:46:32.905Z,6.24
2022-12-31T23:48:59.457Z,6.29
2022-12-31T23:51:25.932Z,6.33
2022-12-31T23:53:52.341Z,6.38
2022-12-31T23:56:23.650Z,6.43
2022-12-31T23:58:55.241Z,6.49
